sensor_id;sensor_type;location;lat;lon;timestamp;pressure;altitude;pressure_sealevel;temperature;humidity
7433;BME280;32233;49.500;7.764;2023-07-13T00:01:32;98484.69;;;13.03;91.78
7433;BME280;32233;49.500;7.764;2023-07-13T00:03:59;98479.03;;;12.93;92.01
7433;BME280;32233;49.500;7.764;2023-07-13T00:06:26;98480.91;;;12.85;93.94
7433;BME280;32233;49.500;7.764;2023-07-13T00:08:59;98477.69;;;12.83;93.22
7433;BME280;32233;49.500;7.764;2023-07-13T00:11:26;98488.13;;;12.78;94.39
7433;BME280;32233;49.500;7.764;2023-07-13T00:13:53;98489.50;;;12.81;94.25
7433;BME280;32233;49.500;7.764;2023-07-13T00:16:19;98491.97;;;12.82;94.49
7433;BME280;32233;49.500;7.764;2023-07-13T00:18:46;98500.63;;;12.64;95.16
7433;BME280;32233;49.500;7.764;2023-07-13T00:21:13;98497.66;;;12.86;94.75
7433;BME280;32233;49.500;7.764;2023-07-13T00:23:42;98508.44;;;12.91;94.02
7433;BME280;32233;49.500;7.764;2023-07-13T00:26:10;98501.16;;;12.80;94.69
7433;BME280;32233;49.500;7.764;2023-07-13T00:28:38;98506.69;;;12.78;95.78
7433;BME280;32233;49.500;7.764;2023-07-13T00:31:06;98513.22;;;12.76;96.75
7433;BME280;32233;49.500;7.764;2023-07-13T00:33:34;98512.41;;;12.75;97.85
7433;BME280;32233;49.500;7.764;2023-07-13T00:36:01;98507.25;;;12.87;96.75
7433;BME280;32233;49.500;7.764;2023-07-13T00:38:28;98519.31;;;12.83;96.52
7433;BME280;32233;49.500;7.764;2023-07-13T00:40:55;98511.00;;;12.73;97.03
7433;BME280;32233;49.500;7.764;2023-07-13T00:43:25;98510.44;;;12.96;97.49
7433;BME280;32233;49.500;7.764;2023-07-13T00:48:25;98519.81;;;12.98;96.21
7433;BME280;32233;49.500;7.764;2023-07-13T00:50:55;98519.13;;;13.09;96.61
7433;BME280;32233;49.500;7.764;2023-07-13T00:53:25;98521.13;;;13.14;96.13
7433;BME280;32233;49.500;7.764;2023-07-13T00:55:53;98515.41;;;12.85;94.95
7433;BME280;32233;49.500;7.764;2023-07-13T00:58:21;98524.34;;;12.59;98.11
7433;BME280;32233;49.500;7.764;2023-07-13T01:00:48;98524.81;;;12.50;98.85
7433;BME280;32233;49.500;7.764;2023-07-13T01:03:17;98536.28;;;12.30;99.41
7433;BME280;32233;49.500;7.764;2023-07-13T01:05:47;98530.84;;;12.19;100.00
7433;BME280;32233;49.500;7.764;2023-07-13T01:08:15;98524.31;;;12.21;100.00
7433;BME280;32233;49.500;7.764;2023-07-13T01:10:53;98520.31;;;12.50;99.28
7433;BME280;32233;49.500;7.764;2023-07-13T01:13:20;98520.22;;;12.63;97.59
7433;BME280;32233;49.500;7.764;2023-07-13T01:15:48;98529.31;;;12.81;96.47
7433;BME280;32233;49.500;7.764;2023-07-13T01:21:04;98523.41;;;12.79;96.60
7433;BME280;32233;49.500;7.764;2023-07-13T01:23:31;98521.00;;;12.71;95.54
7433;BME280;32233;49.500;7.764;2023-07-13T01:25:59;98528.81;;;12.59;95.90
7433;BME280;32233;49.500;7.764;2023-07-13T01:28:27;98522.16;;;12.50;95.67
7433;BME280;32233;49.500;7.764;2023-07-13T01:30:56;98539.00;;;12.10;97.68
7433;BME280;32233;49.500;7.764;2023-07-13T01:33:23;98532.31;;;11.95;99.70
7433;BME280;32233;49.500;7.764;2023-07-13T01:35:50;98533.97;;;11.76;100.00
7433;BME280;32233;49.500;7.764;2023-07-13T01:38:21;98530.94;;;11.72;100.00
7433;BME280;32233;49.500;7.764;2023-07-13T01:40:50;98527.06;;;11.88;100.00
7433;BME280;32233;49.500;7.764;2023-07-13T01:43:17;98519.25;;;12.13;99.32
7433;BME280;32233;49.500;7.764;2023-07-13T01:45:44;98518.81;;;12.16;99.23
7433;BME280;32233;49.500;7.764;2023-07-13T01:48:12;98529.28;;;11.98;99.54
7433;BME280;32233;49.500;7.764;2023-07-13T01:50:40;98532.16;;;11.83;100.00
7433;BME280;32233;49.500;7.764;2023-07-13T01:53:07;98529.91;;;11.66;100.00
7433;BME280;32233;49.500;7.764;2023-07-13T01:55:34;98526.84;;;11.76;100.00
7433;BME280;32233;49.500;7.764;2023-07-13T01:58:02;98531.75;;;11.66;100.00
7433;BME280;32233;49.500;7.764;2023-07-13T02:00:29;98533.38;;;11.60;100.00
7433;BME280;32233;49.500;7.764;2023-07-13T02:02:55;98539.91;;;11.64;100.00
7433;BME280;32233;49.500;7.764;2023-07-13T02:05:23;98539.66;;;11.79;100.00
7433;BME280;32233;49.500;7.764;2023-07-13T02:07:49;98532.94;;;11.90;100.00
7433;BME280;32233;49.500;7.764;2023-07-13T02:10:16;98526.97;;;12.08;100.00
7433;BME280;32233;49.500;7.764;2023-07-13T02:12:43;98525.75;;;12.17;99.17
7433;BME280;32233;49.500;7.764;2023-07-13T02:15:10;98527.13;;;12.26;97.89
7433;BME280;32233;49.500;7.764;2023-07-13T02:17:37;98523.03;;;12.30;98.08
7433;BME280;32233;49.500;7.764;2023-07-13T02:20:04;98522.06;;;12.25;97.74
7433;BME280;32233;49.500;7.764;2023-07-13T02:22:31;98522.88;;;12.19;98.36
7433;BME280;32233;49.500;7.764;2023-07-13T02:24:58;98522.88;;;12.25;98.94
7433;BME280;32233;49.500;7.764;2023-07-13T02:27:25;98523.06;;;12.24;98.42
7433;BME280;32233;49.500;7.764;2023-07-13T02:29:51;98525.28;;;12.33;98.86
7433;BME280;32233;49.500;7.764;2023-07-13T02:32:19;98531.78;;;12.37;97.85
7433;BME280;32233;49.500;7.764;2023-07-13T02:34:46;98523.78;;;12.44;97.09
7433;BME280;32233;49.500;7.764;2023-07-13T02:37:12;98519.69;;;12.48;96.25
7433;BME280;32233;49.500;7.764;2023-07-13T02:39:39;98533.41;;;12.45;97.21
7433;BME280;32233;49.500;7.764;2023-07-13T02:42:06;98526.50;;;12.37;97.56
7433;BME280;32233;49.500;7.764;2023-07-13T02:44:33;98528.16;;;12.25;97.95
7433;BME280;32233;49.500;7.764;2023-07-13T02:46:59;98527.81;;;12.08;99.27
7433;BME280;32233;49.500;7.764;2023-07-13T02:49:26;98520.91;;;12.01;99.99
7433;BME280;32233;49.500;7.764;2023-07-13T02:51:52;98520.28;;;12.05;100.00
7433;BME280;32233;49.500;7.764;2023-07-13T02:54:19;98528.97;;;12.26;98.85
7433;BME280;32233;49.500;7.764;2023-07-13T02:56:45;98526.69;;;12.36;96.49
7433;BME280;32233;49.500;7.764;2023-07-13T02:59:12;98518.47;;;12.51;96.22
7433;BME280;32233;49.500;7.764;2023-07-13T03:01:39;98520.25;;;12.57;95.92
7433;BME280;32233;49.500;7.764;2023-07-13T03:04:06;98515.84;;;12.44;96.51
7433;BME280;32233;49.500;7.764;2023-07-13T03:06:34;98520.41;;;12.30;97.17
7433;BME280;32233;49.500;7.764;2023-07-13T03:09:02;98532.78;;;12.43;96.62
7433;BME280;32233;49.500;7.764;2023-07-13T03:11:31;98528.44;;;12.55;96.28
7433;BME280;32233;49.500;7.764;2023-07-13T03:14:14;98527.88;;;12.40;96.83
7433;BME280;32233;49.500;7.764;2023-07-13T03:16:41;98535.31;;;12.25;95.92
7433;BME280;32233;49.500;7.764;2023-07-13T03:19:08;98536.19;;;11.99;97.72
7433;BME280;32233;49.500;7.764;2023-07-13T03:21:35;98539.47;;;11.74;99.54
7433;BME280;32233;49.500;7.764;2023-07-13T03:24:02;98538.66;;;11.67;100.00
7433;BME280;32233;49.500;7.764;2023-07-13T03:26:29;98536.19;;;11.79;100.00
7433;BME280;32233;49.500;7.764;2023-07-13T03:28:56;98535.16;;;12.00;100.00
7433;BME280;32233;49.500;7.764;2023-07-13T03:31:26;98547.53;;;12.19;100.00
7433;BME280;32233;49.500;7.764;2023-07-13T03:33:53;98540.84;;;12.17;98.58
7433;BME280;32233;49.500;7.764;2023-07-13T03:36:24;98542.28;;;12.06;98.59
7433;BME280;32233;49.500;7.764;2023-07-13T03:38:59;98552.88;;;12.12;99.30
7433;BME280;32233;49.500;7.764;2023-07-13T03:41:34;98551.00;;;12.26;99.12
7433;BME280;32233;49.500;7.764;2023-07-13T03:44:01;98561.41;;;12.21;98.33
7433;BME280;32233;49.500;7.764;2023-07-13T03:46:28;98564.25;;;12.26;98.01
7433;BME280;32233;49.500;7.764;2023-07-13T03:48:55;98556.09;;;12.21;97.84
7433;BME280;32233;49.500;7.764;2023-07-13T03:51:22;98567.13;;;12.18;98.28
7433;BME280;32233;49.500;7.764;2023-07-13T03:53:49;98556.94;;;12.15;98.38
7433;BME280;32233;49.500;7.764;2023-07-13T03:56:18;98561.78;;;12.31;99.01
7433;BME280;32233;49.500;7.764;2023-07-13T03:58:47;98564.47;;;12.11;100.00
7433;BME280;32233;49.500;7.764;2023-07-13T04:01:19;98569.38;;;12.14;100.00
7433;BME280;32233;49.500;7.764;2023-07-13T04:03:46;98566.94;;;12.00;100.00
7433;BME280;32233;49.500;7.764;2023-07-13T04:06:20;98573.69;;;11.96;100.00
7433;BME280;32233;49.500;7.764;2023-07-13T04:08:50;98565.16;;;11.87;100.00
7433;BME280;32233;49.500;7.764;2023-07-13T04:11:19;98570.88;;;11.84;100.00
7433;BME280;32233;49.500;7.764;2023-07-13T04:13:46;98566.38;;;11.84;100.00
7433;BME280;32233;49.500;7.764;2023-07-13T04:16:15;98564.53;;;11.78;100.00
7433;BME280;32233;49.500;7.764;2023-07-13T04:18:41;98568.59;;;12.01;100.00
7433;BME280;32233;49.500;7.764;2023-07-13T04:21:08;98565.88;;;12.27;100.00
7433;BME280;32233;49.500;7.764;2023-07-13T04:23:37;98570.53;;;12.38;100.00
7433;BME280;32233;49.500;7.764;2023-07-13T04:26:04;98569.00;;;12.56;98.89
7433;BME280;32233;49.500;7.764;2023-07-13T04:28:31;98575.41;;;12.42;99.09
7433;BME280;32233;49.500;7.764;2023-07-13T04:30:57;98577.91;;;12.30;99.88
7433;BME280;32233;49.500;7.764;2023-07-13T04:33:24;98579.34;;;12.26;99.71
7433;BME280;32233;49.500;7.764;2023-07-13T04:35:52;98575.66;;;12.27;100.00
7433;BME280;32233;49.500;7.764;2023-07-13T04:38:30;98583.38;;;12.35;99.97
7433;BME280;32233;49.500;7.764;2023-07-13T04:41:00;98586.00;;;12.42;100.00
7433;BME280;32233;49.500;7.764;2023-07-13T04:43:28;98576.38;;;12.54;99.89
7433;BME280;32233;49.500;7.764;2023-07-13T04:45:54;98581.00;;;12.65;99.58
7433;BME280;32233;49.500;7.764;2023-07-13T04:48:22;98581.94;;;12.84;99.23
7433;BME280;32233;49.500;7.764;2023-07-13T04:50:55;98585.56;;;12.89;98.59
7433;BME280;32233;49.500;7.764;2023-07-13T04:53:22;98582.16;;;13.14;98.64
7433;BME280;32233;49.500;7.764;2023-07-13T04:55:49;98589.50;;;13.19;97.91
7433;BME280;32233;49.500;7.764;2023-07-13T04:58:16;98588.38;;;13.40;97.48
7433;BME280;32233;49.500;7.764;2023-07-13T05:00:42;98596.06;;;13.48;96.52
7433;BME280;32233;49.500;7.764;2023-07-13T05:03:09;98598.34;;;13.69;95.65
7433;BME280;32233;49.500;7.764;2023-07-13T05:05:36;98597.63;;;13.80;94.94
7433;BME280;32233;49.500;7.764;2023-07-13T05:08:03;98590.94;;;13.96;95.75
7433;BME280;32233;49.500;7.764;2023-07-13T05:10:29;98597.97;;;14.09;94.49
7433;BME280;32233;49.500;7.764;2023-07-13T05:12:56;98599.75;;;14.33;92.65
7433;BME280;32233;49.500;7.764;2023-07-13T05:15:23;98601.22;;;14.48;91.02
7433;BME280;32233;49.500;7.764;2023-07-13T05:17:49;98604.91;;;14.65;89.39
7433;BME280;32233;49.500;7.764;2023-07-13T05:20:17;98607.81;;;14.82;88.29
7433;BME280;32233;49.500;7.764;2023-07-13T05:22:44;98610.41;;;15.00;87.54
7433;BME280;32233;49.500;7.764;2023-07-13T05:25:13;98608.03;;;15.22;86.43
7433;BME280;32233;49.500;7.764;2023-07-13T05:27:40;98611.56;;;15.34;85.93
7433;BME280;32233;49.500;7.764;2023-07-13T05:30:07;98610.63;;;16.18;83.06
7433;BME280;32233;49.500;7.764;2023-07-13T05:32:37;98597.19;;;16.76;78.33
7433;BME280;32233;49.500;7.764;2023-07-13T05:35:04;98604.94;;;16.38;79.55
7433;BME280;32233;49.500;7.764;2023-07-13T05:37:30;98600.44;;;15.91;81.55
7433;BME280;32233;49.500;7.764;2023-07-13T05:39:57;98606.69;;;15.85;80.49
7433;BME280;32233;49.500;7.764;2023-07-13T05:42:23;98609.53;;;16.54;79.11
7433;BME280;32233;49.500;7.764;2023-07-13T05:44:50;98604.84;;;18.14;71.50
7433;BME280;32233;49.500;7.764;2023-07-13T05:47:16;98602.50;;;19.33;65.80
7433;BME280;32233;49.500;7.764;2023-07-13T05:49:43;98608.31;;;19.51;63.30
7433;BME280;32233;49.500;7.764;2023-07-13T05:52:09;98613.28;;;20.02;59.66
7433;BME280;32233;49.500;7.764;2023-07-13T05:54:36;98606.91;;;20.61;59.08
7433;BME280;32233;49.500;7.764;2023-07-13T05:57:03;98613.91;;;20.62;59.21
7433;BME280;32233;49.500;7.764;2023-07-13T05:59:29;98616.44;;;21.09;56.54
7433;BME280;32233;49.500;7.764;2023-07-13T06:01:56;98614.66;;;21.45;55.48
7433;BME280;32233;49.500;7.764;2023-07-13T06:04:22;98609.81;;;21.32;55.43
7433;BME280;32233;49.500;7.764;2023-07-13T06:06:49;98618.28;;;20.83;57.78
7433;BME280;32233;49.500;7.764;2023-07-13T06:09:15;98612.19;;;21.23;56.35
7433;BME280;32233;49.500;7.764;2023-07-13T06:11:42;98621.88;;;21.19;57.08
7433;BME280;32233;49.500;7.764;2023-07-13T06:14:09;98620.56;;;22.09;53.46
7433;BME280;32233;49.500;7.764;2023-07-13T06:16:35;98621.06;;;22.41;52.04
7433;BME280;32233;49.500;7.764;2023-07-13T06:19:02;98625.44;;;21.56;55.05
7433;BME280;32233;49.500;7.764;2023-07-13T06:21:28;98623.16;;;22.44;52.53
7433;BME280;32233;49.500;7.764;2023-07-13T06:23:55;98625.97;;;21.78;53.84
7433;BME280;32233;49.500;7.764;2023-07-13T06:26:21;98637.72;;;20.53;57.36
7433;BME280;32233;49.500;7.764;2023-07-13T06:28:48;98631.31;;;22.04;54.39
7433;BME280;32233;49.500;7.764;2023-07-13T06:31:15;98634.59;;;22.86;49.79
7433;BME280;32233;49.500;7.764;2023-07-13T06:33:41;98626.56;;;23.35;49.12
7433;BME280;32233;49.500;7.764;2023-07-13T06:36:09;98628.38;;;24.08;46.75
7433;BME280;32233;49.500;7.764;2023-07-13T06:38:36;98632.41;;;22.23;49.64
7433;BME280;32233;49.500;7.764;2023-07-13T06:41:04;98640.75;;;21.45;53.87
7433;BME280;32233;49.500;7.764;2023-07-13T06:43:31;98644.34;;;20.83;56.55
7433;BME280;32233;49.500;7.764;2023-07-13T06:45:58;98646.88;;;22.47;52.17
7433;BME280;32233;49.500;7.764;2023-07-13T06:48:25;98639.66;;;23.47;49.52
7433;BME280;32233;49.500;7.764;2023-07-13T06:50:51;98644.38;;;24.29;45.11
7433;BME280;32233;49.500;7.764;2023-07-13T06:53:20;98644.97;;;24.26;45.02
7433;BME280;32233;49.500;7.764;2023-07-13T06:55:47;98645.72;;;22.69;46.49
7433;BME280;32233;49.500;7.764;2023-07-13T06:58:16;98659.16;;;21.00;51.67
7433;BME280;32233;49.500;7.764;2023-07-13T07:00:43;98660.25;;;20.47;50.16
7433;BME280;32233;49.500;7.764;2023-07-13T07:03:10;98658.16;;;19.79;53.24
7433;BME280;32233;49.500;7.764;2023-07-13T07:05:36;98653.13;;;21.82;49.43
7433;BME280;32233;49.500;7.764;2023-07-13T07:08:04;98656.59;;;23.97;43.80
7433;BME280;32233;49.500;7.764;2023-07-13T07:10:31;98643.75;;;25.09;42.36
7433;BME280;32233;49.500;7.764;2023-07-13T07:12:58;98643.16;;;26.48;39.24
7433;BME280;32233;49.500;7.764;2023-07-13T07:15:25;98637.13;;;26.78;38.98
7433;BME280;32233;49.500;7.764;2023-07-13T07:17:52;98643.56;;;26.68;39.13
7433;BME280;32233;49.500;7.764;2023-07-13T07:20:19;98646.44;;;26.17;39.47
7433;BME280;32233;49.500;7.764;2023-07-13T07:22:47;98650.38;;;26.80;38.12
7433;BME280;32233;49.500;7.764;2023-07-13T07:25:14;98646.94;;;27.15;36.30
7433;BME280;32233;49.500;7.764;2023-07-13T07:27:41;98647.03;;;26.14;37.53
7433;BME280;32233;49.500;7.764;2023-07-13T07:30:10;98655.03;;;23.07;42.72
7433;BME280;32233;49.500;7.764;2023-07-13T07:32:40;98655.50;;;22.49;46.59
7433;BME280;32233;49.500;7.764;2023-07-13T07:35:23;98648.91;;;22.86;45.05
7433;BME280;32233;49.500;7.764;2023-07-13T07:37:49;98652.91;;;22.99;45.90
7433;BME280;32233;49.500;7.764;2023-07-13T07:40:17;98644.28;;;25.49;40.04
7433;BME280;32233;49.500;7.764;2023-07-13T07:42:47;98644.06;;;26.84;37.08
7433;BME280;32233;49.500;7.764;2023-07-13T07:45:14;98644.28;;;26.47;37.29
7433;BME280;32233;49.500;7.764;2023-07-13T07:47:40;98651.38;;;27.11;35.95
7433;BME280;32233;49.500;7.764;2023-07-13T07:50:08;98639.03;;;25.90;37.67
7433;BME280;32233;49.500;7.764;2023-07-13T07:52:35;98639.94;;;26.87;36.67
7433;BME280;32233;49.500;7.764;2023-07-13T07:55:04;98647.94;;;27.06;36.45
7433;BME280;32233;49.500;7.764;2023-07-13T07:57:34;98645.28;;;28.09;34.51
7433;BME280;32233;49.500;7.764;2023-07-13T08:00:04;98642.81;;;28.30;33.64
7433;BME280;32233;49.500;7.764;2023-07-13T08:02:39;98639.25;;;28.52;33.03
7433;BME280;32233;49.500;7.764;2023-07-13T08:05:27;98643.34;;;28.89;32.17
7433;BME280;32233;49.500;7.764;2023-07-13T08:08:08;98646.41;;;27.86;34.10
7433;BME280;32233;49.500;7.764;2023-07-13T08:10:36;98643.28;;;28.32;33.51
7433;BME280;32233;49.500;7.764;2023-07-13T08:13:03;98641.28;;;27.84;33.89
7433;BME280;32233;49.500;7.764;2023-07-13T08:15:33;98640.34;;;27.44;34.53
7433;BME280;32233;49.500;7.764;2023-07-13T08:17:59;98640.69;;;27.29;34.65
7433;BME280;32233;49.500;7.764;2023-07-13T08:20:26;98644.94;;;27.07;35.15
7433;BME280;32233;49.500;7.764;2023-07-13T08:22:52;98639.28;;;27.17;34.22
7433;BME280;32233;49.500;7.764;2023-07-13T08:25:19;98630.44;;;27.84;34.06
7433;BME280;32233;49.500;7.764;2023-07-13T08:27:47;98631.75;;;27.14;35.23
7433;BME280;32233;49.500;7.764;2023-07-13T08:30:13;98632.22;;;26.53;36.69
7433;BME280;32233;49.500;7.764;2023-07-13T08:32:40;98630.91;;;25.90;37.30
7433;BME280;32233;49.500;7.764;2023-07-13T08:35:06;98642.81;;;24.76;40.58
7433;BME280;32233;49.500;7.764;2023-07-13T08:37:33;98649.38;;;24.45;41.20
7433;BME280;32233;49.500;7.764;2023-07-13T08:40:00;98645.91;;;23.82;42.43
7433;BME280;32233;49.500;7.764;2023-07-13T08:42:46;98640.16;;;23.93;42.26
7433;BME280;32233;49.500;7.764;2023-07-13T08:48:00;98633.75;;;24.42;43.16
7433;BME280;32233;49.500;7.764;2023-07-13T08:50:32;98637.75;;;24.69;40.05
7433;BME280;32233;49.500;7.764;2023-07-13T08:53:21;98637.59;;;24.31;42.21
7433;BME280;32233;49.500;7.764;2023-07-13T08:55:52;98636.41;;;24.18;41.63
7433;BME280;32233;49.500;7.764;2023-07-13T08:58:24;98641.84;;;23.45;44.52
7433;BME280;32233;49.500;7.764;2023-07-13T09:01:21;98644.72;;;23.19;44.38
7433;BME280;32233;49.500;7.764;2023-07-13T09:04:04;98635.91;;;23.43;43.13
7433;BME280;32233;49.500;7.764;2023-07-13T09:06:59;98640.84;;;23.36;42.33
7433;BME280;32233;49.500;7.764;2023-07-13T09:12:25;98626.56;;;23.30;44.57
7433;BME280;32233;49.500;7.764;2023-07-13T09:14:56;98631.84;;;23.85;42.05
7433;BME280;32233;49.500;7.764;2023-07-13T09:17:27;98632.22;;;23.73;41.69
7433;BME280;32233;49.500;7.764;2023-07-13T09:20:08;98641.97;;;23.69;42.40
7433;BME280;32233;49.500;7.764;2023-07-13T09:22:37;98639.69;;;23.03;41.66
7433;BME280;32233;49.500;7.764;2023-07-13T09:27:53;98633.78;;;23.40;42.13
7433;BME280;32233;49.500;7.764;2023-07-13T09:30:48;98639.84;;;23.66;42.54
7433;BME280;32233;49.500;7.764;2023-07-13T09:33:18;98639.97;;;23.80;41.43
7433;BME280;32233;49.500;7.764;2023-07-13T09:35:45;98637.66;;;23.63;41.16
7433;BME280;32233;49.500;7.764;2023-07-13T09:38:17;98626.28;;;24.00;42.07
7433;BME280;32233;49.500;7.764;2023-07-13T09:41:01;98639.28;;;23.98;39.56
7433;BME280;32233;49.500;7.764;2023-07-13T09:43:30;98630.75;;;23.52;41.13
7433;BME280;32233;49.500;7.764;2023-07-13T09:45:57;98634.03;;;23.43;42.16
7433;BME280;32233;49.500;7.764;2023-07-13T09:48:24;98633.34;;;24.01;40.62
7433;BME280;32233;49.500;7.764;2023-07-13T09:50:54;98642.66;;;23.85;39.42
7433;BME280;32233;49.500;7.764;2023-07-13T09:53:22;98649.97;;;23.79;41.78
7433;BME280;32233;49.500;7.764;2023-07-13T09:55:50;98636.91;;;23.57;41.68
7433;BME280;32233;49.500;7.764;2023-07-13T09:58:22;98638.44;;;23.29;43.22
7433;BME280;32233;49.500;7.764;2023-07-13T10:01:00;98643.06;;;23.63;43.27
7433;BME280;32233;49.500;7.764;2023-07-13T10:03:34;98641.00;;;23.89;42.65
7433;BME280;32233;49.500;7.764;2023-07-13T10:06:19;98643.78;;;22.95;42.68
7433;BME280;32233;49.500;7.764;2023-07-13T10:08:47;98643.69;;;23.05;43.07
7433;BME280;32233;49.500;7.764;2023-07-13T10:13:50;98648.63;;;23.37;43.04
7433;BME280;32233;49.500;7.764;2023-07-13T10:16:17;98648.09;;;23.40;44.25
7433;BME280;32233;49.500;7.764;2023-07-13T10:18:48;98652.03;;;23.92;41.80
7433;BME280;32233;49.500;7.764;2023-07-13T10:21:22;98643.75;;;24.37;38.62
7433;BME280;32233;49.500;7.764;2023-07-13T10:23:55;98646.09;;;24.49;38.61
7433;BME280;32233;49.500;7.764;2023-07-13T10:26:26;98636.69;;;24.46;40.60
7433;BME280;32233;49.500;7.764;2023-07-13T10:28:56;98641.56;;;23.86;38.97
7433;BME280;32233;49.500;7.764;2023-07-13T10:31:23;98645.22;;;23.66;40.37
7433;BME280;32233;49.500;7.764;2023-07-13T10:33:51;98642.84;;;24.22;38.56
7433;BME280;32233;49.500;7.764;2023-07-13T10:36:26;98639.38;;;24.70;37.66
7433;BME280;32233;49.500;7.764;2023-07-13T10:38:55;98632.16;;;25.27;37.10
7433;BME280;32233;49.500;7.764;2023-07-13T10:41:24;98635.28;;;25.53;36.87
7433;BME280;32233;49.500;7.764;2023-07-13T10:43:54;98634.66;;;26.08;35.04
7433;BME280;32233;49.500;7.764;2023-07-13T10:46:25;98624.34;;;26.10;35.39
7433;BME280;32233;49.500;7.764;2023-07-13T10:49:02;98632.28;;;25.36;35.19
7433;BME280;32233;49.500;7.764;2023-07-13T10:51:31;98639.16;;;24.42;37.54
7433;BME280;32233;49.500;7.764;2023-07-13T10:56:51;98639.84;;;23.95;40.25
7433;BME280;32233;49.500;7.764;2023-07-13T10:59:24;98637.25;;;25.10;37.04
7433;BME280;32233;49.500;7.764;2023-07-13T11:02:11;98631.97;;;25.18;37.16
7433;BME280;32233;49.500;7.764;2023-07-13T11:04:44;98635.34;;;24.67;38.69
7433;BME280;32233;49.500;7.764;2023-07-13T11:07:20;98639.53;;;23.67;39.34
7433;BME280;32233;49.500;7.764;2023-07-13T11:09:52;98639.19;;;23.40;40.15
7433;BME280;32233;49.500;7.764;2023-07-13T11:17:32;98642.31;;;24.92;37.65
7433;BME280;32233;49.500;7.764;2023-07-13T11:23:08;98634.25;;;24.44;38.17
7433;BME280;32233;49.500;7.764;2023-07-13T11:25:36;98636.66;;;23.93;39.12
7433;BME280;32233;49.500;7.764;2023-07-13T11:33:17;98629.16;;;24.43;38.73
7433;BME280;32233;49.500;7.764;2023-07-13T11:38:40;98634.25;;;23.86;37.13
7433;BME280;32233;49.500;7.764;2023-07-13T11:41:17;98645.25;;;23.16;40.42
7433;BME280;32233;49.500;7.764;2023-07-13T11:43:49;98642.16;;;22.84;40.89
7433;BME280;32233;49.500;7.764;2023-07-13T11:46:27;98647.13;;;22.51;41.65
7433;BME280;32233;49.500;7.764;2023-07-13T11:48:53;98639.91;;;22.36;41.02
7433;BME280;32233;49.500;7.764;2023-07-13T11:51:28;98643.13;;;22.38;42.29
7433;BME280;32233;49.500;7.764;2023-07-13T11:53:56;98642.34;;;22.38;42.38
7433;BME280;32233;49.500;7.764;2023-07-13T11:56:26;98634.94;;;22.69;42.62
7433;BME280;32233;49.500;7.764;2023-07-13T11:58:56;98638.66;;;23.38;41.19
7433;BME280;32233;49.500;7.764;2023-07-13T12:01:30;98647.94;;;23.61;39.89
7433;BME280;32233;49.500;7.764;2023-07-13T12:04:01;98647.44;;;23.54;40.24
7433;BME280;32233;49.500;7.764;2023-07-13T12:06:31;98639.91;;;23.51;40.16
7433;BME280;32233;49.500;7.764;2023-07-13T12:09:00;98639.34;;;23.54;40.82
7433;BME280;32233;49.500;7.764;2023-07-13T12:11:30;98650.84;;;23.30;40.46
7433;BME280;32233;49.500;7.764;2023-07-13T12:14:01;98644.94;;;23.28;38.99
7433;BME280;32233;49.500;7.764;2023-07-13T12:16:32;98644.78;;;24.46;39.07
7433;BME280;32233;49.500;7.764;2023-07-13T12:19:00;98625.44;;;26.09;37.04
7433;BME280;32233;49.500;7.764;2023-07-13T12:21:33;98631.53;;;25.49;34.20
7433;BME280;32233;49.500;7.764;2023-07-13T12:24:01;98624.25;;;24.16;36.11
7433;BME280;32233;49.500;7.764;2023-07-13T12:26:31;98631.81;;;23.56;41.12
7433;BME280;32233;49.500;7.764;2023-07-13T12:29:01;98644.47;;;23.55;38.17
7433;BME280;32233;49.500;7.764;2023-07-13T12:31:37;98644.25;;;23.46;38.99
7433;BME280;32233;49.500;7.764;2023-07-13T12:36:58;98649.47;;;25.45;35.80
7433;BME280;32233;49.500;7.764;2023-07-13T12:39:45;98643.59;;;27.19;31.59
7433;BME280;32233;49.500;7.764;2023-07-13T12:42:27;98630.72;;;27.83;31.94
7433;BME280;32233;49.500;7.764;2023-07-13T12:44:58;98648.28;;;26.03;36.44
7433;BME280;32233;49.500;7.764;2023-07-13T12:47:28;98638.19;;;25.38;34.12
7433;BME280;32233;49.500;7.764;2023-07-13T12:49:58;98637.91;;;24.78;36.49
7433;BME280;32233;49.500;7.764;2023-07-13T12:52:30;98661.09;;;24.84;35.78
7433;BME280;32233;49.500;7.764;2023-07-13T12:55:13;98655.00;;;24.49;35.80
7433;BME280;32233;49.500;7.764;2023-07-13T12:57:49;98659.28;;;23.97;37.25
7433;BME280;32233;49.500;7.764;2023-07-13T13:00:25;98655.34;;;23.84;35.76
7433;BME280;32233;49.500;7.764;2023-07-13T13:02:55;98657.38;;;24.56;35.75
7433;BME280;32233;49.500;7.764;2023-07-13T13:05:42;98637.13;;;25.72;33.73
7433;BME280;32233;49.500;7.764;2023-07-13T13:08:11;98632.06;;;26.16;32.98
7433;BME280;32233;49.500;7.764;2023-07-13T13:10:39;98636.06;;;25.73;35.08
7433;BME280;32233;49.500;7.764;2023-07-13T13:13:06;98650.50;;;25.06;35.45
7433;BME280;32233;49.500;7.764;2023-07-13T13:15:32;98650.81;;;24.38;36.88
7433;BME280;32233;49.500;7.764;2023-07-13T13:17:59;98647.53;;;24.12;39.26
7433;BME280;32233;49.500;7.764;2023-07-13T13:20:26;98655.19;;;24.29;37.02
7433;BME280;32233;49.500;7.764;2023-07-13T13:22:53;98646.09;;;24.73;35.41
7433;BME280;32233;49.500;7.764;2023-07-13T13:25:20;98644.59;;;25.04;36.03
7433;BME280;32233;49.500;7.764;2023-07-13T13:27:46;98646.34;;;25.19;33.62
7433;BME280;32233;49.500;7.764;2023-07-13T13:30:15;98651.25;;;24.93;34.63
7433;BME280;32233;49.500;7.764;2023-07-13T13:32:44;98647.88;;;25.01;35.33
7433;BME280;32233;49.500;7.764;2023-07-13T13:35:20;98635.56;;;25.52;32.97
7433;BME280;32233;49.500;7.764;2023-07-13T13:37:47;98645.38;;;25.29;35.99
7433;BME280;32233;49.500;7.764;2023-07-13T13:40:16;98634.19;;;25.35;34.11
7433;BME280;32233;49.500;7.764;2023-07-13T13:42:43;98644.19;;;25.35;36.15
7433;BME280;32233;49.500;7.764;2023-07-13T13:45:10;98635.81;;;25.36;34.71
7433;BME280;32233;49.500;7.764;2023-07-13T13:47:39;98639.59;;;25.16;34.54
7433;BME280;32233;49.500;7.764;2023-07-13T13:50:18;98644.31;;;24.87;35.37
7433;BME280;32233;49.500;7.764;2023-07-13T13:52:46;98647.50;;;24.46;36.56
7433;BME280;32233;49.500;7.764;2023-07-13T13:57:41;98646.78;;;24.06;35.64
7433;BME280;32233;49.500;7.764;2023-07-13T14:00:11;98655.34;;;23.84;37.21
7433;BME280;32233;49.500;7.764;2023-07-13T14:02:47;98653.81;;;23.73;37.09